Wilson Algeciras — 9HA2471 — position and weather

sailwx.info

Track history (hours):
 
Tides and Currents Weather Stations Pressure Air Temp Water Temp Dewpoint Dewpoint Depression Visibility Wind Speed Wind Dir Waves Ship Positions

Wilson Algeciras

Last reported at 2017-Feb-25 12:28 UTC. Time now 2017-Feb-25 13:59 UTC.
Position N 58°02' E 005°51'.

Length 88 m; draft 5 m.

Type: Ship. MMSI: 248689000.

Date/timePositionNaut miles runAvg speedWind from/ knotsBaromVisibWave heightAir tempDewpointWater temp
2017-Feb-25 12:28N 58°02' E 005°51'7 7.5
2017-Feb-25 11:34N 58°00' E 006°03'8 7.5
2017-Feb-25 10:33N 57°58' E 006°17'8 7.8
2017-Feb-25 09:33N 57°56' E 006°31'8 8.2
2017-Feb-25 08:34N 57°54' E 006°46'9 9.4
2017-Feb-25 07:33N 57°53' E 007°03'1010.1
2017-Feb-25 06:33N 57°53' E 007°23'1110.8
2017-Feb-25 05:33N 57°52' E 007°43'1010.4
2017-Feb-25 04:33N 57°52' E 008°02'1010.2
2017-Feb-25 03:33N 57°52' E 008°22'64 9.1
2017-Feb-24 20:33N 57°50' E 010°21'9 9.3
2017-Feb-24 19:33N 57°49' E 010°38'9 9.0
2017-Feb-24 18:33N 57°46' E 010°54'9 9.2
2017-Feb-24 17:33N 57°42' E 011°10'9 9.1
2017-Feb-24 16:33N 57°38' E 011°25'9 8.6
2017-Feb-24 15:33N 57°36' E 011°41'0 0.3
2017-Feb-24 14:32N 57°36' E 011°41'0 0.0
2017-Feb-24 13:32N 57°36' E 011°41'0 0.0
2017-Feb-24 12:32N 57°36' E 011°41'0 0.0
2017-Feb-24 11:32N 57°36' E 011°41'0 0.0
2017-Feb-24 10:33N 57°36' E 011°41'0 0.1
2017-Feb-24 09:34N 57°36' E 011°41'6 5.7
2017-Feb-24 08:34N 57°30' E 011°38'10 9.4
2017-Feb-24 07:33N 57°21' E 011°37'9 8.6
2017-Feb-24 06:33N 57°12' E 011°38'8 8.1
2017-Feb-24 05:33N 57°05' E 011°42'108 7.7
2017-Feb-23 15:27N 55°19' E 011°03'7 8.1
2017-Feb-23 14:33N 55°12' E 011°06'8 8.1
2017-Feb-23 13:34N 55°04' E 011°06'9 8.7
2017-Feb-23 12:34N 54°59' E 011°19'9 8.6
2017-Feb-23 11:33N 54°52' E 011°28'2 2.1
2017-Feb-23 10:33N 54°50' E 011°29'0 0.0
2017-Feb-23 09:33N 54°50' E 011°29'0 0.0
2017-Feb-23 08:33N 54°50' E 011°29'0 0.0
2017-Feb-23 07:33N 54°50' E 011°29'0 0.0
2017-Feb-23 06:33N 54°50' E 011°29'0 0.0
2017-Feb-23 05:33N 54°50' E 011°29'0 0.0
2017-Feb-23 04:33N 54°50' E 011°29'0 0.0
2017-Feb-23 03:33N 54°50' E 011°29'0 0.0
2017-Feb-23 02:34N 54°50' E 011°29'0 0.0
2017-Feb-23 01:33N 54°50' E 011°29'0 0.0
2017-Feb-23 00:33N 54°50' E 011°29'0 0.0
2017-Feb-22 23:33N 54°50' E 011°29'0 0.0
2017-Feb-22 22:33N 54°50' E 011°29'0 0.0
2017-Feb-22 21:33N 54°50' E 011°29'0 0.0
2017-Feb-22 20:33N 54°50' E 011°29'0 0.0
2017-Feb-22 19:33N 54°50' E 011°29'0 0.0
2017-Feb-22 18:33N 54°50' E 011°29'0 0.0
2017-Feb-22 17:33N 54°50' E 011°29'0 0.0
2017-Feb-22 16:33N 54°50' E 011°29'0 0.0
2017-Feb-22 15:33N 54°50' E 011°29'0 0.0
2017-Feb-22 14:33N 54°50' E 011°29'0 0.0
2017-Feb-22 13:33N 54°50' E 011°29'0 0.0
2017-Feb-22 12:33N 54°50' E 011°29'0 0.0
2017-Feb-22 11:33N 54°50' E 011°29'0 0.0
2017-Feb-22 10:33N 54°50' E 011°29'0 0.0
2017-Feb-22 09:33N 54°50' E 011°29'0 0.0
2017-Feb-22 08:33N 54°50' E 011°29'0 0.0
2017-Feb-22 07:33N 54°50' E 011°29'0 0.0
2017-Feb-22 06:33N 54°50' E 011°29'0 0.0
2017-Feb-22 05:33N 54°50' E 011°29'0 0.0
2017-Feb-22 04:33N 54°50' E 011°29'0 0.0
2017-Feb-22 03:33N 54°50' E 011°29'0 0.0
2017-Feb-22 02:33N 54°50' E 011°29'0 0.0
2017-Feb-22 01:33N 54°50' E 011°29'0 0.0
2017-Feb-22 00:33N 54°50' E 011°29'0 0.0
2017-Feb-21 23:33N 54°50' E 011°29'0 0.0
2017-Feb-21 22:33N 54°50' E 011°29'0 0.0
2017-Feb-21 21:33N 54°50' E 011°29'0 0.0
2017-Feb-21 20:33N 54°50' E 011°29'0 0.0
2017-Feb-21 19:33N 54°50' E 011°29'0 0.0
2017-Feb-21 18:33N 54°50' E 011°29'0 0.0
2017-Feb-21 17:33N 54°50' E 011°29'0 0.0
2017-Feb-21 16:33N 54°50' E 011°29'0 0.0
2017-Feb-21 15:33N 54°50' E 011°29'0 0.0
2017-Feb-21 14:33N 54°50' E 011°29'0 0.0
2017-Feb-21 13:33N 54°50' E 011°29'0 0.0
2017-Feb-21 12:33N 54°50' E 011°29'0 0.0
2017-Feb-21 11:33N 54°50' E 011°29'0 0.0
2017-Feb-21 10:33N 54°50' E 011°29'0 0.0
2017-Feb-21 09:33N 54°50' E 011°29'2 2.1
2017-Feb-21 08:33N 54°52' E 011°28'9 9.4
2017-Feb-21 07:34N 54°60' E 011°18'8 8.2
2017-Feb-21 06:33N 55°04' E 011°06'7 7.5
2017-Feb-21 05:33N 55°12' E 011°05'9 8.5
2017-Feb-21 04:27N 55°21' E 011°02'118 2.8
2017-Feb-19 10:33N 57°18' E 010°42'9 8.9
2017-Feb-19 09:33N 57°27' E 010°43'9 8.9
2017-Feb-19 08:33N 57°36' E 010°44'8 8.4
2017-Feb-19 07:33N 57°44' E 010°45'8 7.6
2017-Feb-19 06:33N 57°47' E 010°32'69 8.5
2017-Feb-18 22:25N 57°52' E 008°23'8 8.8
2017-Feb-18 21:33N 57°52' E 008°08'1010.3
2017-Feb-18 20:33N 57°53' E 007°49'10 9.7
2017-Feb-18 19:33N 57°54' E 007°31'9 9.2
2017-Feb-18 18:33N 57°55' E 007°14'9 8.9
2017-Feb-18 17:33N 57°56' E 006°57'9 8.7
2017-Feb-18 16:33N 57°59' E 006°42'9 9.5
2017-Feb-18 15:33N 58°04' E 006°26'8 8.4
2017-Feb-18 14:34N 58°09' E 006°13'8 7.8
2017-Feb-18 13:33N 58°13' E 006°01'8 8.5
2017-Feb-18 12:33N 58°18' E 005°48'9 8.8
2017-Feb-18 11:33N 58°24' E 005°36'10 9.8
2017-Feb-18 10:34N 58°33' E 005°27'10 9.8
2017-Feb-18 09:34N 58°42' E 005°18'9 8.8
2017-Feb-18 08:33N 58°49' E 005°10'9 8.7
2017-Feb-18 07:33N 58°57' E 005°02'9 9.0
2017-Feb-18 06:33N 59°05' E 004°54'20 8.6
2017-Feb-18 04:12N 59°24' E 004°44'6 9.6
2017-Feb-18 03:33N 59°31' E 004°46'9 9.4
2017-Feb-18 02:33N 59°40' E 004°48'9 8.9
2017-Feb-18 01:33N 59°49' E 004°51'9 8.7
2017-Feb-18 00:33N 59°57' E 004°53'8 7.9
2017-Feb-17 23:33N 60°05' E 004°56'8 8.1
2017-Feb-17 22:33N 60°10' E 005°08'9 8.6
2017-Feb-17 21:33N 60°19' E 005°12'7 7.5
2017-Feb-17 20:33N 60°26' E 005°16'9 8.8
2017-Feb-17 19:32N 60°34' E 005°23'9 8.7
2017-Feb-17 18:33N 60°40' E 005°34'2 1.8
2017-Feb-17 17:33N 60°42' E 005°33'0 0.0
2017-Feb-17 16:33N 60°42' E 005°33'0 0.0
2017-Feb-17 15:33N 60°42' E 005°33'0 0.0
2017-Feb-17 14:32N 60°42' E 005°33'0 0.0
2017-Feb-17 13:33N 60°42' E 005°33'0 0.0
2017-Feb-17 12:33N 60°42' E 005°33'0 0.0
2017-Feb-17 11:33N 60°42' E 005°33'0 0.0
2017-Feb-17 10:32N 60°42' E 005°33'0 0.0
2017-Feb-17 09:33N 60°42' E 005°33'0 0.0
2017-Feb-17 08:33N 60°42' E 005°33'0 0.0
2017-Feb-17 07:33N 60°42' E 005°33'0 0.3
2017-Feb-17 06:33N 60°42' E 005°34'4 4.3
2017-Feb-17 05:33N 60°38' E 005°34'1010.1
2017-Feb-17 04:34N 60°32' E 005°17'10 9.9
2017-Feb-17 03:33N 60°38' E 004°60'1010.0
2017-Feb-17 02:33N 60°44' E 004°44'1010.0
2017-Feb-17 01:33N 60°41' E 004°25'2 1.7
2017-Feb-17 00:06N 60°39' E 004°20'5 9.3
2017-Feb-16 23:34N 60°44' E 004°24'1 0.9
2017-Feb-16 22:33N 60°45' E 004°25'1 1.4
2017-Feb-16 21:33N 60°44' E 004°24'0 0.1
2017-Feb-16 20:33N 60°44' E 004°24'1 0.9
2017-Feb-16 19:33N 60°43' E 004°24'1 1.5
2017-Feb-16 18:33N 60°42' E 004°25'251 9.0
2017-Feb-15 14:33N 59°16' W 003°26'1110.8
2017-Feb-15 13:34N 59°09' W 003°43'1110.9
2017-Feb-15 12:34N 59°03' W 004°00'  
Track history (hours):
 
Tides and Currents Weather Stations Pressure Air Temp Water Temp Dewpoint Dewpoint Depression Visibility Wind Speed Wind Dir Waves Ship Positions

Wilson Algeciras

Last reported at 2017-Feb-25 12:28 UTC. Time now 2017-Feb-25 13:59 UTC.
Position N 58°02' E 005°51'.

Length 88 m; draft 5 m.

Type: Ship. MMSI: 248689000.

Date/timePositionNaut miles runAvg speedWind from/ knotsBaromVisibWave heightAir tempDewpointWater temp
2017-Feb-25 12:28N 58°02' E 005°51'7 7.5
2017-Feb-25 11:34N 58°00' E 006°03'8 7.5
2017-Feb-25 10:33N 57°58' E 006°17'8 7.8
2017-Feb-25 09:33N 57°56' E 006°31'8 8.2
2017-Feb-25 08:34N 57°54' E 006°46'9 9.4
2017-Feb-25 07:33N 57°53' E 007°03'1010.1
2017-Feb-25 06:33N 57°53' E 007°23'1110.8
2017-Feb-25 05:33N 57°52' E 007°43'1010.4
2017-Feb-25 04:33N 57°52' E 008°02'1010.2
2017-Feb-25 03:33N 57°52' E 008°22'64 9.1
2017-Feb-24 20:33N 57°50' E 010°21'9 9.3
2017-Feb-24 19:33N 57°49' E 010°38'9 9.0
2017-Feb-24 18:33N 57°46' E 010°54'9 9.2
2017-Feb-24 17:33N 57°42' E 011°10'9 9.1
2017-Feb-24 16:33N 57°38' E 011°25'9 8.6
2017-Feb-24 15:33N 57°36' E 011°41'0 0.3
2017-Feb-24 14:32N 57°36' E 011°41'0 0.0
2017-Feb-24 13:32N 57°36' E 011°41'0 0.0
2017-Feb-24 12:32N 57°36' E 011°41'0 0.0
2017-Feb-24 11:32N 57°36' E 011°41'0 0.0
2017-Feb-24 10:33N 57°36' E 011°41'0 0.1
2017-Feb-24 09:34N 57°36' E 011°41'6 5.7
2017-Feb-24 08:34N 57°30' E 011°38'10 9.4
2017-Feb-24 07:33N 57°21' E 011°37'9 8.6
2017-Feb-24 06:33N 57°12' E 011°38'8 8.1
2017-Feb-24 05:33N 57°05' E 011°42'108 7.7
2017-Feb-23 15:27N 55°19' E 011°03'7 8.1
2017-Feb-23 14:33N 55°12' E 011°06'8 8.1
2017-Feb-23 13:34N 55°04' E 011°06'9 8.7
2017-Feb-23 12:34N 54°59' E 011°19'9 8.6
2017-Feb-23 11:33N 54°52' E 011°28'2 2.1
2017-Feb-23 10:33N 54°50' E 011°29'0 0.0
2017-Feb-23 09:33N 54°50' E 011°29'0 0.0
2017-Feb-23 08:33N 54°50' E 011°29'0 0.0
2017-Feb-23 07:33N 54°50' E 011°29'0 0.0
2017-Feb-23 06:33N 54°50' E 011°29'0 0.0
2017-Feb-23 05:33N 54°50' E 011°29'0 0.0
2017-Feb-23 04:33N 54°50' E 011°29'0 0.0
2017-Feb-23 03:33N 54°50' E 011°29'0 0.0
2017-Feb-23 02:34N 54°50' E 011°29'0 0.0
2017-Feb-23 01:33N 54°50' E 011°29'0 0.0
2017-Feb-23 00:33N 54°50' E 011°29'0 0.0
2017-Feb-22 23:33N 54°50' E 011°29'0 0.0
2017-Feb-22 22:33N 54°50' E 011°29'0 0.0
2017-Feb-22 21:33N 54°50' E 011°29'0 0.0
2017-Feb-22 20:33N 54°50' E 011°29'0 0.0
2017-Feb-22 19:33N 54°50' E 011°29'0 0.0
2017-Feb-22 18:33N 54°50' E 011°29'0 0.0
2017-Feb-22 17:33N 54°50' E 011°29'0 0.0
2017-Feb-22 16:33N 54°50' E 011°29'0 0.0
2017-Feb-22 15:33N 54°50' E 011°29'0 0.0
2017-Feb-22 14:33N 54°50' E 011°29'0 0.0
2017-Feb-22 13:33N 54°50' E 011°29'0 0.0
2017-Feb-22 12:33N 54°50' E 011°29'0 0.0
2017-Feb-22 11:33N 54°50' E 011°29'0 0.0
2017-Feb-22 10:33N 54°50' E 011°29'0 0.0
2017-Feb-22 09:33N 54°50' E 011°29'0 0.0
2017-Feb-22 08:33N 54°50' E 011°29'0 0.0
2017-Feb-22 07:33N 54°50' E 011°29'0 0.0
2017-Feb-22 06:33N 54°50' E 011°29'0 0.0
2017-Feb-22 05:33N 54°50' E 011°29'0 0.0
2017-Feb-22 04:33N 54°50' E 011°29'0 0.0
2017-Feb-22 03:33N 54°50' E 011°29'0 0.0
2017-Feb-22 02:33N 54°50' E 011°29'0 0.0
2017-Feb-22 01:33N 54°50' E 011°29'0 0.0
2017-Feb-22 00:33N 54°50' E 011°29'0 0.0
2017-Feb-21 23:33N 54°50' E 011°29'0 0.0
2017-Feb-21 22:33N 54°50' E 011°29'0 0.0
2017-Feb-21 21:33N 54°50' E 011°29'0 0.0
2017-Feb-21 20:33N 54°50' E 011°29'0 0.0
2017-Feb-21 19:33N 54°50' E 011°29'0 0.0
2017-Feb-21 18:33N 54°50' E 011°29'0 0.0
2017-Feb-21 17:33N 54°50' E 011°29'0 0.0
2017-Feb-21 16:33N 54°50' E 011°29'0 0.0
2017-Feb-21 15:33N 54°50' E 011°29'0 0.0
2017-Feb-21 14:33N 54°50' E 011°29'0 0.0
2017-Feb-21 13:33N 54°50' E 011°29'0 0.0
2017-Feb-21 12:33N 54°50' E 011°29'0 0.0
2017-Feb-21 11:33N 54°50' E 011°29'0 0.0
2017-Feb-21 10:33N 54°50' E 011°29'0 0.0
2017-Feb-21 09:33N 54°50' E 011°29'2 2.1
2017-Feb-21 08:33N 54°52' E 011°28'9 9.4
2017-Feb-21 07:34N 54°60' E 011°18'8 8.2
2017-Feb-21 06:33N 55°04' E 011°06'7 7.5
2017-Feb-21 05:33N 55°12' E 011°05'9 8.5
2017-Feb-21 04:27N 55°21' E 011°02'118 2.8
2017-Feb-19 10:33N 57°18' E 010°42'9 8.9
2017-Feb-19 09:33N 57°27' E 010°43'9 8.9
2017-Feb-19 08:33N 57°36' E 010°44'8 8.4
2017-Feb-19 07:33N 57°44' E 010°45'8 7.6
2017-Feb-19 06:33N 57°47' E 010°32'69 8.5
2017-Feb-18 22:25N 57°52' E 008°23'8 8.8
2017-Feb-18 21:33N 57°52' E 008°08'1010.3
2017-Feb-18 20:33N 57°53' E 007°49'10 9.7
2017-Feb-18 19:33N 57°54' E 007°31'9 9.2
2017-Feb-18 18:33N 57°55' E 007°14'9 8.9
2017-Feb-18 17:33N 57°56' E 006°57'9 8.7
2017-Feb-18 16:33N 57°59' E 006°42'9 9.5
2017-Feb-18 15:33N 58°04' E 006°26'8 8.4
2017-Feb-18 14:34N 58°09' E 006°13'8 7.8
2017-Feb-18 13:33N 58°13' E 006°01'8 8.5
2017-Feb-18 12:33N 58°18' E 005°48'9 8.8
2017-Feb-18 11:33N 58°24' E 005°36'10 9.8
2017-Feb-18 10:34N 58°33' E 005°27'10 9.8
2017-Feb-18 09:34N 58°42' E 005°18'9 8.8
2017-Feb-18 08:33N 58°49' E 005°10'9 8.7
2017-Feb-18 07:33N 58°57' E 005°02'9 9.0
2017-Feb-18 06:33N 59°05' E 004°54'20 8.6
2017-Feb-18 04:12N 59°24' E 004°44'6 9.6
2017-Feb-18 03:33N 59°31' E 004°46'9 9.4
2017-Feb-18 02:33N 59°40' E 004°48'9 8.9
2017-Feb-18 01:33N 59°49' E 004°51'9 8.7
2017-Feb-18 00:33N 59°57' E 004°53'8 7.9
2017-Feb-17 23:33N 60°05' E 004°56'8 8.1
2017-Feb-17 22:33N 60°10' E 005°08'9 8.6
2017-Feb-17 21:33N 60°19' E 005°12'7 7.5
2017-Feb-17 20:33N 60°26' E 005°16'9 8.8
2017-Feb-17 19:32N 60°34' E 005°23'9 8.7
2017-Feb-17 18:33N 60°40' E 005°34'2 1.8
2017-Feb-17 17:33N 60°42' E 005°33'0 0.0
2017-Feb-17 16:33N 60°42' E 005°33'0 0.0
2017-Feb-17 15:33N 60°42' E 005°33'0 0.0
2017-Feb-17 14:32N 60°42' E 005°33'0 0.0
2017-Feb-17 13:33N 60°42' E 005°33'0 0.0
2017-Feb-17 12:33N 60°42' E 005°33'0 0.0
2017-Feb-17 11:33N 60°42' E 005°33'0 0.0
2017-Feb-17 10:32N 60°42' E 005°33'0 0.0
2017-Feb-17 09:33N 60°42' E 005°33'0 0.0
2017-Feb-17 08:33N 60°42' E 005°33'0 0.0
2017-Feb-17 07:33N 60°42' E 005°33'0 0.3
2017-Feb-17 06:33N 60°42' E 005°34'4 4.3
2017-Feb-17 05:33N 60°38' E 005°34'1010.1
2017-Feb-17 04:34N 60°32' E 005°17'10 9.9
2017-Feb-17 03:33N 60°38' E 004°60'1010.0
2017-Feb-17 02:33N 60°44' E 004°44'1010.0
2017-Feb-17 01:33N 60°41' E 004°25'2 1.7
2017-Feb-17 00:06N 60°39' E 004°20'5 9.3
2017-Feb-16 23:34N 60°44' E 004°24'1 0.9
2017-Feb-16 22:33N 60°45' E 004°25'1 1.4
2017-Feb-16 21:33N 60°44' E 004°24'0 0.1
2017-Feb-16 20:33N 60°44' E 004°24'1 0.9
2017-Feb-16 19:33N 60°43' E 004°24'1 1.5
2017-Feb-16 18:33N 60°42' E 004°25'251 9.0
2017-Feb-15 14:33N 59°16' W 003°26'1110.8
2017-Feb-15 13:34N 59°09' W 003°43'1110.9
2017-Feb-15 12:34N 59°03' W 004°00'  

Dump ship's entire track history